KTVI/TVI METAR and TAF weather

Enter ICAO airport designator
Station Type Date Time Source
KTVI METAR 2021/01/27 13:35 UTC NOAA

KTVI 271335Z AUTO 21007KT 7SM OVC005 20/20 A2999 RMK AO2


Station Type Date Time Source
KTVI Decoded METAR 2021/01/27 13:35 UTC NOAA

Thomasville, GA, United States (KTVI) 30-54-06N 083-52-53W
Jan 27, 2021 - 08:35 AM EST / 2021.01.27 1335 UTC
Wind: from the SSW (210 degrees) at 8 MPH (7 KT):0
Visibility: 7 mile(s):0
Sky conditions: overcast
Temperature: 68 F (20 C)
Dew Point: 68 F (20 C)
Relative Humidity: 100%
Pressure (altimeter): 29.99 in. Hg (1015 hPa)
ob: KTVI 271335Z AUTO 21007KT 7SM OVC005 20/20 A2999 RMK AO2
cycle: 13

Station Type Date Time Source
KTVI TAF UTC NOAA

Error!

Example: see airport list